Flight Track Log - Related Links

Times and Time Zones

All times are in EDT time to prevent confusion due to time zone crossing. See the SWA1725 flight status page for this flight to view local times or setup timezone preferences in your user account.

Time Position Orientation Groundspeed Altitude Reporting Facility
EDT Latitude Longitude Course Direction KTS MPH feet Rate Location/Type
Sat 11:08:52 AM 33.4333 -111.9833 90° East 164 189 2,000  Level Phoenix TRACON
Sat 11:09:34 AM 33.4333 -111.9500 90° East 166 191 3,000 1,938 Climbing Phoenix TRACON
Sat 11:10:28 AM 33.4333 -111.8833 90° East 216 249 5,100 1,782 Climbing Phoenix TRACON
Sat 11:11:15 AM 33.4431 -111.8358 76° East 237 273 6,000 2,257 Climbing Albuquerque Center
Sat 11:12:17 AM 33.4544 -111.7442 82° East 276 318 9,200 3,242 Climbing Albuquerque Center
Sat 11:13:19 AM 33.4714 -111.6250 80° East 304 350 12,700 2,927 Climbing Albuquerque Center
Sat 11:14:20 AM 33.4858 -111.5067 82° East 357 411 15,200 2,634 Climbing Albuquerque Center
Sat 11:15:22 AM 33.5022 -111.3839 81° East 374 430 18,100 2,468 Climbing Albuquerque Center
Sat 11:16:24 AM 33.5164 -111.2525 83° East 400 460 20,300 2,226 Climbing Albuquerque Center
Sat 11:17:26 AM 33.5308 -111.1136 83° East 420 483 22,700 2,419 Climbing Albuquerque Center
Sat 11:18:28 AM 33.5506 -110.9386 82° East 441 507 25,300 2,177 Climbing Albuquerque Center
Sat 11:19:30 AM 33.5894 -110.7950 72° East 454 522 27,200 1,659 Climbing Albuquerque Center
Sat 11:20:31 AM 33.6353 -110.6506 69° East 462 532 28,700 1,512 Climbing Albuquerque Center
Sat 11:21:33 AM 33.6825 -110.5006 69° East 473 544 30,300 1,694 Climbing Albuquerque Center
Sat 11:22:35 AM 33.7361 -110.3358 69° East 490 564 32,200 1,790 Climbing Albuquerque Center
Sat 11:23:37 AM 33.7844 -110.1825 69° East 491 565 34,000 1,452 Climbing Albuquerque Center
Sat 11:24:39 AM 33.8339 -110.0306 69° East 490 564 35,200 1,268 Climbing Albuquerque Center
Sat 11:25:40 AM 33.8842 -109.8739 69° East 497 572 36,600 878 Climbing Albuquerque Center
Sat 11:26:42 AM 33.9314 -109.7206 70° East 491 565 37,000 194 Climbing Albuquerque Center
Sat 11:27:44 AM 33.9892 -109.5369 69° East 489 563 37,000  Level Albuquerque Center
Sat 11:28:46 AM 34.0369 -109.3839 69° East 487 560 37,000  Level Albuquerque Center
Sat 11:29:48 AM 34.0744 -109.2283 74° East 486 559 37,000  Level Albuquerque Center
Sat 11:30:49 AM 34.1008 -109.0561 79° East 484 557 37,000  Level Albuquerque Center
Sat 11:31:51 AM 34.1244 -108.9039 79° East 484 557 37,000  Level Albuquerque Center
Sat 11:32:53 AM 34.1489 -108.7506 79° East 482 555 37,000  Level Albuquerque Center
Sat 11:33:55 AM 34.1733 -108.5931 79° East 479 551 37,000  Level Albuquerque Center
Sat 11:34:56 AM 34.1981 -108.4358 79° East 476 548 37,000  Level Albuquerque Center
Sat 11:35:58 AM 34.2272 -108.2442 80° East 482 555 37,000  Level Albuquerque Center
Sat 11:37:00 AM 34.2489 -108.0847 81° East 483 556 37,000  Level Albuquerque Center
Sat 11:38:02 AM 34.2719 -107.9250 80° East 483 556 37,000  Level Albuquerque Center
Sat 11:39:03 AM 34.2956 -107.7656 80° East 482 555 37,000  Level Albuquerque Center
Sat 11:40:05 AM 34.3194 -107.6081 80° East 480 552 37,000  Level Albuquerque Center
Sat 11:41:07 AM 34.3431 -107.4486 80° East 482 555 37,000  Level Albuquerque Center
Sat 11:42:08 AM 34.3661 -107.2894 80° East 482 555 37,000  Level Albuquerque Center
Sat 11:43:10 AM 34.3964 -107.0933 79° East 483 556 37,000  Level Albuquerque Center
Sat 11:44:12 AM 34.4192 -106.9350 80° East 481 554 37,000  Level Albuquerque Center
Sat 11:45:13 AM 34.4422 -106.7619 81° East 484 557 37,000  Level Albuquerque Center
Sat 11:46:15 AM 34.4642 -106.6042 80° East 480 552 37,000  Level Albuquerque Center
Sat 11:47:17 AM 34.4822 -106.4628 81° East 480 552 37,000  Level Albuquerque Center
Sat 11:48:18 AM 34.5047 -106.3044 80° East 479 551 37,000  Level Albuquerque Center
Sat 11:49:20 AM 34.5297 -106.1200 81° East 472 543 37,000  Level Albuquerque Center
Sat 11:50:21 AM 34.5497 -105.9614 81° East 473 544 37,000  Level Albuquerque Center
Sat 11:51:23 AM 34.5708 -105.8019 81° East 473 544 37,000  Level Albuquerque Center
Sat 11:52:24 AM 34.5919 -105.6442 81° East 471 542 37,000  Level Albuquerque Center
Sat 11:53:26 AM 34.6114 -105.4831 82° East 476 548 37,000  Level Albuquerque Center
Sat 11:54:28 AM 34.6311 -105.3233 81° East 477 549 37,000  Level Albuquerque Center
Sat 11:55:29 AM 34.6517 -105.1642 81° East 476 548 37,000 98 Level Albuquerque Center
Sat 11:56:31 AM 34.6717 -105.0028 81° East 478 550 37,200 829 Climbing Albuquerque Center
Sat 11:57:32 AM 34.6953 -104.8131 81° East 484 557 38,700 878 Climbing Albuquerque Center
Sat 11:58:34 AM 34.7150 -104.6517 81° East 482 555 39,000 146 Climbing Albuquerque Center
Sat 11:59:35 AM 34.7344 -104.4900 82° East 482 555 39,000  Level Albuquerque Center
Sat 12:00:37 PM 34.7539 -104.3275 82° East 484 557 39,000  Level Albuquerque Center
Sat 12:01:39 PM 34.7742 -104.1661 81° East 483 556 39,000  Level Albuquerque Center
Sat 12:02:40 PM 34.7925 -104.0033 82° East 484 557 39,000  Level Albuquerque Center
Sat 12:03:42 PM 34.8108 -103.8406 82° East 485 558 39,000  Level Albuquerque Center
Sat 12:04:43 PM 34.8336 -103.6506 82° East 485 558 39,000  Level Albuquerque Center
Sat 12:05:45 PM 34.8506 -103.4883 83° East 483 556 39,000  Level Albuquerque Center
Sat 12:06:47 PM 34.8697 -103.3264 82° East 482 555 39,000  Level Albuquerque Center
Sat 12:07:48 PM 34.8869 -103.1642 83° East 481 554 39,000  Level Albuquerque Center
Sat 12:08:50 PM 34.9053 -103.0000 82° East 485 558 39,000  Level Albuquerque Center
Sat 12:09:51 PM 34.9225 -102.8364 83° East 484 557 39,000  Level Albuquerque Center
Sat 12:10:53 PM 34.9400 -102.6725 83° East 485 558 39,000  Level Albuquerque Center
Sat 12:11:55 PM 34.9547 -102.5158 83° East 486 559 39,000  Level Albuquerque Center
Sat 12:12:56 PM 34.9739 -102.3211 83° East 485 558 39,000  Level Albuquerque Center
Sat 12:13:58 PM 34.9908 -102.1583 83° East 486 559 39,000  Level Albuquerque Center
Sat 12:15:00 PM 35.0081 -101.9861 83° East 486 559 39,000  Level Albuquerque Center
Sat 12:16:01 PM 35.0250 -101.8222 83° East 484 557 39,000  Level Albuquerque Center
Sat 12:17:03 PM 35.0411 -101.6542 83° East 484 557 39,000  Level Albuquerque Center
Sat 12:18:05 PM 35.0583 -101.4922 83° East 483 556 39,000  Level Albuquerque Center
Sat 12:19:07 PM 35.0775 -101.3264 82° East 480 552 39,000  Level Albuquerque Center
Sat 12:20:08 PM 35.1064 -101.1692 77° East 479 551 39,000  Level Albuquerque Center
Sat 12:21:10 PM 35.1353 -101.0114 77° East 478 550 39,000  Level Albuquerque Center
Sat 12:22:12 PM 35.1644 -100.8542 77° East 478 550 39,000  Level Albuquerque Center
Sat 12:23:13 PM 35.1939 -100.6972 77° East 477 549 39,000  Level Albuquerque Center
Sat 12:24:15 PM 35.2281 -100.5036 78° East 481 554 39,000  Level Albuquerque Center
Sat 12:25:17 PM 35.2597 -100.3456 76° East 481 554 39,000  Level Albuquerque Center
Sat 12:26:19 PM 35.2878 -100.1858 78° East 481 554 39,000  Level Albuquerque Center
Sat 12:27:20 PM 35.2883 -100.0211 90° East 481 554 39,000  Level Albuquerque Center
Sat 12:28:22 PM 35.2906 -99.8556 89° East 484 557 39,000  Level Albuquerque Center
Sat 12:29:24 PM 35.2925 -99.6897 89° East 487 560 39,000  Level Albuquerque Center
Sat 12:30:26 PM 35.2944 -99.5242 89° East 488 562 39,000  Level Albuquerque Center
Sat 12:31:44 PM 35.2961 -99.2958 89° East 483 556 39,000  Level Fort Worth Center
Sat 12:32:46 PM 35.2967 -99.1300 90° East 488 562 39,000  Level Fort Worth Center
Sat 12:33:48 PM 35.2981 -98.9658 89° East 488 562 39,000  Level Fort Worth Center
Sat 12:34:50 PM 35.2992 -98.7994 89° East 489 563 39,000  Level Fort Worth Center
Sat 12:35:52 PM 35.2997 -98.6019 90° East 489 563 39,000  Level Fort Worth Center
Sat 12:36:54 PM 35.2997 -98.4336 90° East 485 558 39,000  Level Fort Worth Center
Sat 12:37:56 PM 35.2997 -98.2681 90° East 488 562 39,000  Level Fort Worth Center
Sat 12:38:58 PM 35.2986 -98.1019 90° East 489 563 39,000  Level Fort Worth Center
Sat 12:40:00 PM 35.2981 -97.9378 90° East 486 559 39,000  Level Fort Worth Center
Sat 12:41:02 PM 35.2978 -97.7750 90° East 483 556 39,000  Level Fort Worth Center
Sat 12:42:04 PM 35.2964 -97.6119 91° East 485 558 39,000  Level Fort Worth Center
Sat 12:43:05 PM 35.2931 -97.4203 91° East 480 552 39,000  Level Fort Worth Center
Sat 12:44:07 PM 35.2928 -97.2578 90° East 490 564 39,000  Level Fort Worth Center
Sat 12:45:09 PM 35.2925 -97.0956 90° East 487 560 39,000  Level Fort Worth Center
Sat 12:46:11 PM 35.2911 -96.9319 91° East 487 560 39,000  Level Fort Worth Center
Sat 12:47:13 PM 35.2906 -96.7353 90° East 484 557 39,000  Level Fort Worth Center
Sat 12:48:15 PM 35.2883 -96.5725 91° East 482 555 39,000  Level Fort Worth Center
Sat 12:49:17 PM 35.2861 -96.4100 91° East 480 552 39,000  Level Fort Worth Center
Sat 12:50:18 PM 35.2825 -96.2481 92° East 479 551 39,000  Level Fort Worth Center
Sat 12:51:20 PM 35.2800 -96.0869 91° East 477 549 39,000  Level Fort Worth Center
Sat 12:52:22 PM 35.2772 -95.9261 91° East 475 547 39,000  Level Fort Worth Center
Sat 12:53:24 PM 35.2733 -95.7497 91° East 479 551 39,000  Level Fort Worth Center
Sat 12:54:25 PM 35.2694 -95.5892 92° East 476 548 39,000  Level Fort Worth Center
Sat 12:55:27 PM 35.2653 -95.4283 92° East 474 545 39,000  Level Fort Worth Center
Sat 12:56:29 PM 35.2614 -95.2333 91° East 477 549 39,000  Level Fort Worth Center
Sat 12:57:31 PM 35.2564 -95.0719 92° East 478 550 39,000  Level Fort Worth Center
Sat 12:58:33 PM 35.2514 -94.9097 92° East 478 550 39,000  Level Fort Worth Center
Sat 12:59:34 PM 35.2597 -94.7478 86° East 482 555 39,000  Level Fort Worth Center
Sat 01:00:36 PM 35.2758 -94.5847 83° East 483 556 39,000  Level Fort Worth Center
Sat 01:01:35 PM 35.2917 -94.4247 83° East 484 557 39,000  Level Memphis Center
Sat 01:02:35 PM 35.3094 -94.2600 82° East 484 557 39,000  Level Memphis Center
Sat 01:03:35 PM 35.3247 -94.0956 83° East 478 550 39,000  Level Memphis Center
Sat 01:04:35 PM 35.3419 -93.9333 83° East 483 556 39,000  Level Memphis Center
Sat 01:05:35 PM 35.3592 -93.7711 83° East 478 550 39,000  Level Memphis Center
Sat 01:06:35 PM 35.3761 -93.6064 83° East 478 550 39,000  Level Memphis Center
Sat 01:07:35 PM 35.3906 -93.4464 84° East 478 550 39,000  Level Memphis Center
Sat 01:08:35 PM 35.4069 -93.2892 83° East 478 550 39,000  Level Memphis Center
Sat 01:09:35 PM 35.4231 -93.1267 83° East 475 547 39,000  Level Memphis Center
Sat 01:10:34 PM 35.4369 -92.9664 84° East 476 548 39,000  Level Memphis Center
Sat 01:11:35 PM 35.4508 -92.8014 84° East 481 554 39,000  Level Memphis Center
Sat 01:12:35 PM 35.4667 -92.6233 84° East 488 562 39,000  Level Memphis Center
Sat 01:13:35 PM 35.4819 -92.4606 83° East 481 554 39,000  Level Memphis Center
Sat 01:14:35 PM 35.4969 -92.3028 83° East 475 547 39,000  Level Memphis Center
Sat 01:15:35 PM 35.5078 -92.1425 85° East 475 547 39,000  Level Memphis Center
Sat 01:16:35 PM 35.5225 -91.9794 84° East 475 547 39,000  Level Memphis Center
Sat 01:17:35 PM 35.5350 -91.8189 84° East 475 547 39,000  Level Memphis Center
Sat 01:18:35 PM 35.5492 -91.6583 84° East 475 547 39,000  Level Memphis Center
Sat 01:19:35 PM 35.5633 -91.4978 84° East 480 552 39,000  Level Memphis Center
Sat 01:20:34 PM 35.5750 -91.3525 84° East 480 552 39,000  Level Memphis Center
Sat 01:21:35 PM 35.5889 -91.1764 84° East 480 552 39,000  Level Memphis Center
Sat 01:22:35 PM 35.6022 -91.0133 84° East 480 552 39,000  Level Memphis Center
Sat 01:23:35 PM 35.6133 -90.8500 85° East 480 552 39,000  Level Memphis Center
Sat 01:24:35 PM 35.6264 -90.6892 84° East 480 552 39,000  Level Memphis Center
Sat 01:25:35 PM 35.6372 -90.5231 85° East 480 552 39,000 -100 Level Memphis Center
Sat 01:26:35 PM 35.6497 -90.3622 84° East 480 552 38,800 -555 Descending Memphis Center
Sat 01:27:34 PM 35.6600 -90.1961 86° East 480 552 37,900 -857 Descending Memphis Center
Sat 01:28:34 PM 35.6703 -90.0478 85° East 485 558 37,100 -893 Descending Memphis Center
Sat 01:29:35 PM 35.6822 -89.8817 85° East 485 558 36,100 -942 Descending Memphis Center
Sat 01:30:35 PM 35.6897 -89.7206 87° East 480 552 35,200 -550 Descending Memphis Center
Sat 01:31:35 PM 35.6953 -89.5647 87° East 465 535 35,000 -100 Descending Memphis Center
Sat 01:32:35 PM 35.7044 -89.4111 86° East 454 522 35,000  Level Memphis Center
Sat 01:33:34 PM 35.7136 -89.2550 86° East 454 522 35,000  Level Memphis Center
Sat 01:34:35 PM 35.7225 -89.0989 86° East 454 522 35,000 -446 Level Memphis Center
Sat 01:35:35 PM 35.7356 -88.9403 84° East 461 531 34,100 -1,550 Descending Memphis Center
Sat 01:36:35 PM 35.7442 -88.7867 86° East 461 531 31,900 -2,050 Descending Memphis Center
Sat 01:37:35 PM 35.7525 -88.6381 86° East 449 517 30,000 -1,850 Descending Memphis Center
Sat 01:38:35 PM 35.7589 -88.4922 87° East 433 498 28,200 -1,800 Descending Memphis Center
Sat 01:39:35 PM 35.7689 -88.3486 85° East 423 487 26,400 -1,800 Descending Memphis Center
Sat 01:40:35 PM 35.7750 -88.2103 87° East 412 474 24,600 -1,750 Descending Memphis Center
Sat 01:41:35 PM 35.7831 -88.0769 86° East 397 457 22,900 -1,700 Descending Memphis Center
Sat 01:42:35 PM 35.7911 -87.9436 86° East 392 451 21,200 -1,700 Descending Memphis Center
Sat 01:43:35 PM 35.7967 -87.8131 87° East 381 438 19,500 -1,700 Descending Memphis Center
Sat 01:44:35 PM 35.8025 -87.6847 87° East 381 438 17,800 -1,650 Descending Memphis Center
Sat 01:45:35 PM 35.8081 -87.5619 87° East 376 433 16,200 -1,700 Descending Memphis Center
Sat 01:46:35 PM 35.8425 -87.4325 72° East 364 419 14,400 -1,750 Descending Memphis Center
Sat 01:47:35 PM 35.8836 -87.3208 66° East 357 411 12,700 -1,650 Descending Memphis Center
Sat 01:48:35 PM 35.9228 -87.2169 65° Northeast 338 389 11,100 -1,361 Descending Memphis Center
Sat 01:49:34 PM 35.9639 -87.1103 65° Northeast 338 389 10,000 -1,210 Descending Memphis Center
Sat 01:50:34 PM 36.0011 -87.0189 63° Northeast 312 359 8,700 -1,339 Descending Memphis Center
Sat 01:51:35 PM 36.0403 -86.9250 63° Northeast 306 352 7,300 -1,250 Descending Memphis Center
Sat 01:52:34 PM 36.0772 -86.8361 63° Northeast 301 346 6,200 -1,050 Descending Memphis Center
Sat 01:53:35 PM 36.1322 -86.7875 36° Northeast 234 269 5,200 -992 Descending Memphis Center
Sat 01:54:35 PM 36.1942 -86.7642 17° North 234 269 4,200 -900 Descending Memphis Center
Sat 01:55:35 PM 36.2492 -86.7231 31° Northeast 228 262 3,400 -700 Descending Memphis Center
Sat 01:56:35 PM 36.2389 -86.6542 100° East 160 184 2,800 -650 Descending Memphis Center
Sat 01:57:35 PM 36.2025 -86.6300 152° Southeast 126 145 2,100 -700 Descending Memphis Center
Sat 01:58:35 PM 36.1697 -86.6469 203° Southwest 108 124 1,400 -600 Descending Memphis Center
Sat 01:59:35 PM 36.1364 -86.6511 186° South 127 146 900 -500 Descending Memphis Center
Sat 02:02:00 PM 36.1167 -86.6667 219° Southwest  Level FlightAware Approximate
Sat 02:09:00 PM 36.1245 -86.6782 219° Southwest  Level Estimated
Sat 02:10:00 PM 36.1245 -86.6782 219° Southwest  Level Estimated
Sat 02:11:00 PM 36.1245 -86.6782 219° Southwest  Level Estimated
Sat 02:12:00 PM 36.1245 -86.6782 219° Southwest  Level Estimated
Sat 02:13:00 PM 36.1245 -86.6782 219° Southwest  Level Estimated

Login

Don't have an account? Register now (free) for customized features, flight alerts, and more!